Time;durP1;ratioP1;P1;durP2;ratioP2;P2;SDS_P1;SDS_P2;PMS_P1;PMS_P2;Temp;Humidity;BMP_temperature;BMP_pressure;BME280_temperature;BME280_humidity;BME280_pressure;Samples;Min_cycle;Max_cycle;Signal;HPM_P1;HPM_P2
2022/09/26 00:01:19;;;;;;;2.28;1.90;;;22.90;46.50;;;;;;5009569;28;20049;-58
2022/09/26 00:03:56;;;;;;;3.40;2.42;;;22.90;45.90;;;;;;5009073;28;20052;-59
2022/09/26 00:06:25;;;;;;;2.47;2.28;;;22.90;45.90;;;;;;5009156;28;20666;-59
2022/09/26 00:08:53;;;;;;;2.20;1.98;;;22.90;45.90;;;;;;5009100;28;20049;-59
2022/09/26 00:11:23;;;;;;;2.85;2.20;;;22.90;45.90;;;;;;5008946;28;20491;-59
2022/09/26 00:13:53;;;;;;;2.20;1.95;;;22.90;45.90;;;;;;4991227;28;20070;-59
2022/09/26 00:16:20;;;;;;;2.00;1.77;;;22.90;46.00;;;;;;5009030;28;20249;-59
2022/09/26 00:18:49;;;;;;;1.95;1.75;;;22.80;46.00;;;;;;5007582;28;20046;-58
2022/09/26 00:21:17;;;;;;;3.03;2.72;;;22.80;45.90;;;;;;4987863;28;20501;-58
2022/09/26 00:23:45;;;;;;;3.00;2.20;;;22.90;46.00;;;;;;5008968;28;20054;-59
2022/09/26 00:26:14;;;;;;;3.40;2.58;;;22.90;46.00;;;;;;5008543;28;20049;-58
2022/09/26 00:28:42;;;;;;;2.67;2.25;;;22.90;46.00;;;;;;5009152;28;20080;-58
2022/09/26 00:31:17;;;;;;;2.60;2.10;;;22.90;46.00;;;;;;5008166;28;20052;-58
2022/09/26 00:33:44;;;;;;;2.25;2.08;;;22.90;46.10;;;;;;4991494;28;20053;-59
2022/09/26 00:36:12;;;;;;;2.47;1.92;;;22.90;46.10;;;;;;5008835;28;20050;-59
2022/09/26 00:38:39;;;;;;;2.35;2.15;;;22.80;46.00;;;;;;5008101;28;20050;-58
2022/09/26 00:41:07;;;;;;;2.33;2.05;;;22.80;46.00;;;;;;5008459;28;20540;-58
2022/09/26 00:43:40;;;;;;;3.22;2.47;;;22.90;46.10;;;;;;5008604;28;20053;-58
2022/09/26 00:46:34;;;;;;;2.30;2.10;;;22.80;46.00;;;;;;5008289;28;20430;-59
2022/09/26 00:49:24;;;;;;;2.55;2.20;;;22.80;46.00;;;;;;5008780;28;20054;-58
2022/09/26 00:52:00;;;;;;;2.22;1.92;;;22.90;46.20;;;;;;4988940;28;20418;-59
2022/09/26 00:54:29;;;;;;;2.13;1.70;;;22.80;46.10;;;;;;5008403;28;20049;-58
2022/09/26 00:57:03;;;;;;;2.05;1.90;;;22.80;46.10;;;;;;5007898;28;20482;-59
2022/09/26 00:59:34;;;;;;;2.35;2.13;;;22.80;46.10;;;;;;5008391;28;20046;-59
2022/09/26 01:02:03;;;;;;;2.45;2.20;;;22.90;46.20;;;;;;5007876;28;20064;-59
2022/09/26 01:04:34;;;;;;;4.05;2.05;;;22.80;46.10;;;;;;5008456;28;20455;-59
2022/09/26 01:07:06;;;;;;;2.75;2.42;;;22.80;46.20;;;;;;5008533;28;20058;-59
2022/09/26 01:09:33;;;;;;;1.80;1.55;;;22.80;46.10;;;;;;5007975;28;20050;-59
2022/09/26 01:12:03;;;;;;;2.33;1.90;;;22.80;46.10;;;;;;5008510;28;20038;-59
2022/09/26 01:14:31;;;;;;;;;;;22.80;46.10;;;;;;5009120;28;20232;-59
2022/09/26 01:16:59;;;;;;;2.22;1.90;;;22.80;46.10;;;;;;5007407;28;19922;-59
2022/09/26 01:20:01;;;;;;;2.22;2.03;;;22.90;46.20;;;;;;5008214;28;20125;-58
2022/09/26 01:23:08;;;;;;;1.77;1.67;;;22.80;46.10;;;;;;5007884;28;20505;-59
2022/09/26 01:26:11;;;;;;;1.92;1.73;;;22.80;46.10;;;;;;5003935;28;20053;-58
2022/09/26 01:29:13;;;;;;;2.03;1.83;;;22.90;46.20;;;;;;5008157;28;20525;-59
2022/09/26 01:35:26;;;;;;;3.25;1.80;;;22.80;46.10;;;;;;5007959;28;20057;-59
2022/09/26 01:38:34;;;;;;;2.50;2.30;;;22.90;46.10;;;;;;4995622;28;20056;-58
2022/09/26 01:41:20;;;;;;;2.17;1.95;;;22.90;46.10;;;;;;5007828;28;20061;-59
2022/09/26 01:44:14;;;;;;;2.78;2.30;;;22.90;46.10;;;;;;5008001;28;20042;-59
2022/09/26 01:47:21;;;;;;;2.10;1.90;;;22.90;46.10;;;;;;5007611;28;20046;-59
2022/09/26 01:50:11;;;;;;;2.58;1.98;;;22.90;46.10;;;;;;5008431;28;20049;-59
2022/09/26 01:52:50;;;;;;;2.00;1.63;;;22.80;46.10;;;;;;4992734;28;20505;-58
2022/09/26 01:55:24;;;;;;;1.88;1.77;;;22.80;46.10;;;;;;5008045;28;20495;-59
2022/09/26 01:58:08;;;;;;;2.10;1.90;;;22.80;46.10;;;;;;5004273;28;20043;-58
2022/09/26 02:00:38;;;;;;;2.85;1.83;;;22.80;46.10;;;;;;5007713;28;20490;-59
2022/09/26 02:03:11;;;;;;;2.67;2.30;;;22.80;46.10;;;;;;4990376;28;20053;-58
2022/09/26 02:05:50;;;;;;;2.35;2.15;;;22.80;46.10;;;;;;5007661;28;20050;-58
2022/09/26 02:08:35;;;;;;;2.13;1.70;;;22.80;46.20;;;;;;5007881;28;20061;-60
2022/09/26 02:11:17;;;;;;;2.25;2.05;;;22.80;46.20;;;;;;5009892;28;20069;-59
2022/09/26 02:14:06;;;;;;;1.83;1.73;;;22.80;46.20;;;;;;5010938;28;20514;-59
2022/09/26 02:16:45;;;;;;;1.95;1.85;;;22.80;46.20;;;;;;4993729;28;20053;-59
2022/09/26 02:19:18;;;;;;;2.75;2.15;;;22.80;46.20;;;;;;4993784;28;20565;-58
2022/09/26 02:21:46;;;;;;;2.42;2.22;;;22.80;46.30;;;;;;5010776;28;20049;-59
2022/09/26 02:24:13;;;;;;;2.45;1.88;;;22.80;46.20;;;;;;5010993;28;20053;-58
2022/09/26 02:26:44;;;;;;;2.55;1.85;;;22.80;46.20;;;;;;5011015;28;20042;-59
2022/09/26 02:29:11;;;;;;;;;;;22.80;46.20;;;;;;5006580;28;20522;-59
2022/09/26 02:31:48;;;;;;;1.95;1.75;;;22.80;46.20;;;;;;5011101;28;19928;-59
2022/09/26 02:34:15;;;;;;;2.55;1.90;;;22.70;46.20;;;;;;5010604;28;20060;-58
2022/09/26 02:36:43;;;;;;;1.70;1.60;;;22.80;46.20;;;;;;5010996;28;20076;-59
2022/09/26 02:39:10;;;;;;;2.45;2.15;;;22.80;46.20;;;;;;5010522;28;20537;-59
2022/09/26 02:42:17;;;;;;;2.00;1.90;;;22.70;46.20;;;;;;5010858;28;20434;-59
2022/09/26 02:45:16;;;;;;;2.15;1.90;;;22.80;46.30;;;;;;4995882;28;20054;-58
2022/09/26 02:48:07;;;;;;;2.10;1.90;;;22.80;46.30;;;;;;5010721;28;20065;-59
2022/09/26 02:50:58;;;;;;;2.25;2.00;;;22.70;46.30;;;;;;5010455;28;20050;-59
2022/09/26 02:53:53;;;;;;;2.00;1.73;;;22.80;46.30;;;;;;5010392;28;20487;-59
2022/09/26 02:56:47;;;;;;;1.85;1.63;;;22.80;46.30;;;;;;5010671;28;20041;-59
2022/09/26 02:59:36;;;;;;;2.85;2.20;;;22.80;46.30;;;;;;4980651;28;20050;-59
2022/09/26 03:02:18;;;;;;;1.60;1.50;;;22.80;46.40;;;;;;5007680;28;20050;-59
2022/09/26 03:04:55;;;;;;;2.55;2.08;;;22.70;46.30;;;;;;5010134;28;20045;-59
2022/09/26 03:07:44;;;;;;;1.67;1.58;;;22.80;46.40;;;;;;5010427;28;20404;-59
2022/09/26 03:10:13;;;;;;;2.00;1.80;;;22.70;46.30;;;;;;4992080;28;20053;-59
2022/09/26 03:12:43;;;;;;;2.15;1.90;;;22.80;46.40;;;;;;4992813;28;20069;-59
2022/09/26 03:15:12;;;;;;;1.67;1.58;;;22.80;46.40;;;;;;5009679;28;20045;-58
2022/09/26 03:17:45;;;;;;;1.83;1.73;;;22.70;46.40;;;;;;5010239;28;20054;-58
2022/09/26 03:20:16;;;;;;;1.85;1.75;;;22.80;46.50;;;;;;5010288;28;20362;-59
2022/09/26 03:22:44;;;;;;;2.15;1.95;;;22.70;46.40;;;;;;4975115;28;20050;-59
2022/09/26 03:25:16;;;;;;;2.10;1.60;;;22.80;46.50;;;;;;5010090;28;20049;-58
2022/09/26 03:27:44;;;;;;;1.80;1.70;;;22.80;46.50;;;;;;5009872;28;20410;-59
2022/09/26 03:30:12;;;;;;;2.97;1.98;;;22.80;46.50;;;;;;5010352;28;20057;-59
2022/09/26 03:32:39;;;;;;;2.00;1.88;;;22.70;46.40;;;;;;5004781;28;20486;-59
2022/09/26 03:35:08;;;;;;;2.10;1.77;;;22.70;46.40;;;;;;5009172;28;20458;-58
2022/09/26 03:37:36;;;;;;;2.20;1.88;;;22.70;46.40;;;;;;4992263;28;20053;-59
2022/09/26 03:40:05;;;;;;;2.55;2.10;;;22.80;46.40;;;;;;5008235;28;20057;-58
2022/09/26 03:42:32;;;;;;;2.35;1.83;;;22.70;46.40;;;;;;5009422;28;20046;-60
2022/09/26 03:45:01;;;;;;;2.35;1.85;;;22.80;46.40;;;;;;5000305;28;20053;-58
2022/09/26 03:47:28;;;;;;;2.20;1.77;;;22.70;46.30;;;;;;4993016;28;20065;-58
2022/09/26 03:49:55;;;;;;;2.05;1.80;;;22.80;46.40;;;;;;5003637;28;20050;-59
2022/09/26 03:52:23;;;;;;;2.40;2.15;;;22.80;46.40;;;;;;5003373;28;20454;-59
2022/09/26 03:54:52;;;;;;;1.83;1.70;;;22.80;46.40;;;;;;4989624;28;20466;-59
2022/09/26 03:57:19;;;;;;;1.80;1.70;;;22.70;46.30;;;;;;4982767;28;20573;-59
2022/09/26 03:59:46;;;;;;;2.55;2.05;;;22.80;46.40;;;;;;5007902;28;20076;-59
2022/09/26 04:02:15;;;;;;;1.90;1.70;;;22.80;46.40;;;;;;5009047;28;20054;-59
2022/09/26 04:04:42;;;;;;;1.83;1.73;;;22.80;46.40;;;;;;4989661;28;20050;-58
2022/09/26 04:07:09;;;;;;;2.25;1.65;;;22.70;46.40;;;;;;5008092;28;20053;-59
2022/09/26 04:09:36;;;;;;;1.98;1.60;;;22.70;46.40;;;;;;5015351;28;20502;-60
2022/09/26 04:12:03;;;;;;;2.00;1.90;;;22.80;46.50;;;;;;5029060;28;20064;-59
2022/09/26 04:14:30;;;;;;;2.05;1.83;;;22.70;46.40;;;;;;5021095;28;20076;-58
2022/09/26 04:16:57;;;;;;;1.90;1.80;;;22.70;46.40;;;;;;4991287;28;20295;-59
2022/09/26 04:19:25;;;;;;;1.67;1.58;;;22.70;46.40;;;;;;5008865;28;20136;-58
2022/09/26 04:21:52;;;;;;;2.13;1.83;;;22.70;46.40;;;;;;4991215;28;20062;-59
2022/09/26 04:24:20;;;;;;;1.80;1.70;;;22.70;46.40;;;;;;5008892;28;20069;-58
2022/09/26 04:26:47;;;;;;;1.70;1.60;;;22.70;46.40;;;;;;5007287;28;20050;-59
2022/09/26 04:29:15;;;;;;;2.20;2.00;;;22.70;46.50;;;;;;5004053;28;20069;-59
2022/09/26 04:31:42;;;;;;;2.22;1.95;;;22.70;46.50;;;;;;5008077;28;20514;-59
2022/09/26 04:34:10;;;;;;;2.47;2.00;;;22.70;46.50;;;;;;5015596;28;20054;-58
2022/09/26 04:36:38;;;;;;;2.03;1.92;;;22.70;46.60;;;;;;5011112;28;20053;-59
2022/09/26 04:39:05;;;;;;;1.90;1.77;;;22.70;46.80;;;;;;5009022;28;20048;-59
2022/09/26 04:41:32;;;;;;;1.80;1.70;;;22.70;46.90;;;;;;5010743;28;20683;-59
2022/09/26 04:44:00;;;;;;;2.83;2.58;;;22.70;47.00;;;;;;5008405;28;20064;-59
2022/09/26 04:46:29;;;;;;;2.15;1.95;;;22.70;47.10;;;;;;5008328;28;20042;-59
2022/09/26 04:48:59;;;;;;;3.00;2.30;;;22.70;47.20;;;;;;5011761;28;20133;-59
2022/09/26 04:51:27;;;;;;;2.33;2.00;;;22.70;47.30;;;;;;5000874;28;20049;-59
2022/09/26 04:53:54;;;;;;;2.15;1.95;;;22.70;47.30;;;;;;5016472;28;20099;-59
2022/09/26 04:56:24;;;;;;;2.15;2.05;;;22.70;47.40;;;;;;5010530;28;20093;-59
2022/09/26 04:58:53;;;;;;;2.88;2.38;;;22.70;47.40;;;;;;5008783;28;20049;-59
2022/09/26 05:01:21;;;;;;;3.00;2.60;;;22.70;47.50;;;;;;5006424;28;20073;-58
2022/09/26 05:03:48;;;;;;;2.42;2.22;;;22.70;47.50;;;;;;5003591;28;20302;-59
2022/09/26 05:06:16;;;;;;;2.78;2.53;;;22.70;47.60;;;;;;5015539;28;20052;-59
2022/09/26 05:08:47;;;;;;;4.05;2.45;;;22.70;47.60;;;;;;5011595;28;20053;-58
2022/09/26 05:11:16;;;;;;;2.75;2.55;;;22.70;47.70;;;;;;5010923;28;20069;-59
2022/09/26 05:13:43;;;;;;;3.00;2.72;;;22.70;47.70;;;;;;5009210;28;20054;-59
2022/09/26 05:16:13;;;;;;;2.40;2.20;;;22.70;47.80;;;;;;5008427;28;20138;-59
2022/09/26 05:18:40;;;;;;;2.70;2.08;;;22.70;47.90;;;;;;5009832;28;20054;-58
2022/09/26 05:21:07;;;;;;;3.00;2.70;;;22.70;48.00;;;;;;5007785;28;20045;-58
2022/09/26 05:26:39;;;;;;;2.72;2.53;;;22.70;48.40;;;;;;5005848;28;20060;-59
2022/09/26 05:29:08;;;;;;;2.65;2.45;;;22.70;48.60;;;;;;5004382;28;20527;-59
2022/09/26 05:31:38;;;;;;;2.80;2.60;;;22.70;48.80;;;;;;5002643;28;20044;-59
2022/09/26 05:34:09;;;;;;;2.78;2.40;;;22.80;48.80;;;;;;4994852;28;20537;-59
2022/09/26 05:36:41;;;;;;;4.35;3.22;;;22.80;48.90;;;;;;5000121;28;20049;-59
2022/09/26 05:40:55;;;;;;;3.45;2.90;;;22.80;48.90;;;;;;4998670;28;20406;-59
2022/09/26 05:41:57;;;;;;;4.07;2.35;;;22.80;48.90;;;;;;4990931;28;20483;-59
2022/09/26 05:44:25;;;;;;;3.15;2.88;;;22.90;49.00;;;;;;4994639;28;20148;-59
2022/09/26 05:46:52;;;;;;;4.85;2.90;;;22.90;49.00;;;;;;4999957;28;20042;-59
2022/09/26 05:49:20;;;;;;;3.33;2.92;;;22.90;49.10;;;;;;4998068;28;20112;-59
2022/09/26 05:51:47;;;;;;;3.00;2.78;;;23.00;49.10;;;;;;5004398;28;20061;-60
2022/09/26 05:54:15;;;;;;;3.28;2.67;;;23.00;49.10;;;;;;5004611;28;20517;-60
2022/09/26 05:56:42;;;;;;;3.28;2.97;;;23.00;49.00;;;;;;5003366;28;20049;-60
2022/09/26 05:59:09;;;;;;;4.03;3.00;;;23.00;48.90;;;;;;5002349;28;20417;-61
2022/09/26 06:01:37;;;;;;;5.15;3.83;;;23.00;48.90;;;;;;5002699;28;20088;-61
2022/09/26 06:04:05;;;;;;;3.65;2.97;;;23.10;48.90;;;;;;5005312;28;20046;-60
2022/09/26 06:06:32;;;;;;;4.55;2.90;;;23.10;49.00;;;;;;4999204;28;20081;-60
2022/09/26 06:09:00;;;;;;;3.22;2.85;;;23.10;49.20;;;;;;5000513;28;20050;-61
2022/09/26 06:11:29;;;;;;;2.53;2.33;;;23.10;50.00;;;;;;5003430;28;20053;-60
2022/09/26 06:14:02;;;;;;;4.50;2.97;;;23.20;49.80;;;;;;4999752;28;20049;-61
2022/09/26 06:16:29;;;;;;;;;;;23.30;50.70;;;;;;5004351;28;20052;-60
2022/09/26 06:18:57;;;;;;;3.47;2.85;;;23.30;50.10;;;;;;5001981;28;19929;-61
2022/09/26 06:21:25;;;;;;;4.50;2.97;;;23.30;50.10;;;;;;5010040;28;20064;-61
2022/09/26 06:23:53;;;;;;;3.80;3.05;;;23.30;50.00;;;;;;4999401;28;20149;-63
2022/09/26 06:26:22;;;;;;;6.03;3.65;;;23.40;50.10;;;;;;5004602;28;20045;-62
2022/09/26 06:28:56;;;;;;;3.93;2.77;;;23.40;50.00;;;;;;5007456;28;20569;-62
2022/09/26 06:31:24;;;;;;;8.80;3.33;;;23.50;50.10;;;;;;5004493;28;20335;-62
2022/09/26 06:33:53;;;;;;;3.28;2.97;;;23.50;50.30;;;;;;5003292;28;20065;-62
2022/09/26 06:36:22;;;;;;;3.72;3.15;;;23.60;50.00;;;;;;5007515;28;20052;-61
2022/09/26 06:38:50;;;;;;;7.78;3.20;;;23.60;49.80;;;;;;5007676;28;20045;-60
2022/09/26 06:41:17;;;;;;;3.67;2.85;;;23.60;49.80;;;;;;5003930;28;20054;-60
2022/09/26 06:43:45;;;;;;;4.05;2.80;;;23.70;49.70;;;;;;5002748;28;20043;-60
2022/09/26 06:46:14;;;;;;;5.13;2.95;;;23.70;49.70;;;;;;5002769;28;20065;-60
2022/09/26 06:48:42;;;;;;;7.88;3.45;;;23.70;49.70;;;;;;4993195;28;20483;-60
2022/09/26 06:51:12;;;;;;;7.03;3.53;;;23.70;49.60;;;;;;5006088;28;20457;-61
2022/09/26 06:53:40;;;;;;;5.70;3.05;;;23.70;49.50;;;;;;4988267;28;20057;-61
2022/09/26 06:56:07;;;;;;;6.07;3.10;;;23.70;49.40;;;;;;4994368;28;20042;-61
2022/09/26 06:58:34;;;;;;;7.32;3.75;;;23.70;49.40;;;;;;5006846;28;20058;-61
2022/09/26 07:01:01;;;;;;;6.53;3.28;;;23.70;49.30;;;;;;5002870;28;20512;-60
2022/09/26 07:03:29;;;;;;;7.53;3.45;;;23.70;49.40;;;;;;5001044;28;20187;-59
2022/09/26 07:05:56;;;;;;;9.02;3.30;;;23.70;49.50;;;;;;5000492;28;20061;-59
2022/09/26 07:08:25;;;;;;;6.70;3.80;;;23.70;49.40;;;;;;5002552;28;20050;-59
2022/09/26 07:11:12;;;;;;;4.63;3.45;;;23.70;49.60;;;;;;5001814;28;20402;-60
2022/09/26 07:14:03;;;;;;;8.55;3.20;;;23.70;49.60;;;;;;4996705;28;20494;-60
2022/09/26 07:16:30;;;;;;;3.70;3.08;;;23.70;49.50;;;;;;4996335;28;20045;-60
2022/09/26 07:18:58;;;;;;;5.97;3.13;;;23.70;49.50;;;;;;4994405;28;20050;-60
2022/09/26 07:21:25;;;;;;;6.95;4.43;;;23.70;49.70;;;;;;4996251;28;20065;-59
2022/09/26 07:23:57;;;;;;;3.53;2.90;;;23.70;50.00;;;;;;5003545;28;20403;-58
2022/09/26 07:26:24;;;;;;;5.85;3.55;;;23.70;50.30;;;;;;4994967;28;20525;-59
2022/09/26 07:28:51;;;;;;;4.30;2.97;;;23.70;50.50;;;;;;4981933;28;20498;-59
2022/09/26 07:31:22;;;;;;;4.97;2.97;;;23.80;50.40;;;;;;5002605;28;20133;-60
2022/09/26 07:33:49;;;;;;;4.65;3.17;;;23.80;50.20;;;;;;4991841;28;20062;-59
2022/09/26 07:36:17;;;;;;;7.55;3.25;;;23.80;50.20;;;;;;5001605;28;20056;-60
2022/09/26 07:38:47;;;;;;;6.80;3.13;;;23.90;50.20;;;;;;5000156;28;20050;-62
2022/09/26 07:41:15;;;;;;;6.93;3.35;;;23.90;50.10;;;;;;5000284;28;20054;-60
2022/09/26 07:43:42;;;;;;;5.03;3.33;;;23.90;50.10;;;;;;5001335;28;20052;-59
2022/09/26 07:52:04;;;;;;;7.72;3.17;;;24.00;49.90;;;;;;4995484;28;20045;-59
2022/09/26 07:54:31;;;;;;;12.85;3.83;;;24.00;49.80;;;;;;5002864;28;20065;-59
2022/09/26 07:56:58;;;;;;;6.97;3.25;;;24.00;49.60;;;;;;4999587;28;20038;-59
2022/09/26 07:59:26;;;;;;;4.10;3.20;;;24.10;49.60;;;;;;5001965;28;20564;-59
2022/09/26 08:01:53;;;;;;;4.72;2.75;;;24.10;49.60;;;;;;5004279;28;20052;-59
2022/09/26 08:04:21;;;;;;;8.25;3.15;;;24.20;49.40;;;;;;4998553;28;20109;-60
2022/09/26 08:06:48;;;;;;;4.18;3.25;;;24.20;49.20;;;;;;4995996;28;20072;-60
2022/09/26 08:09:16;;;;;;;10.07;3.97;;;24.30;49.10;;;;;;4997672;28;20081;-60
2022/09/26 08:11:43;;;;;;;5.72;3.85;;;24.30;49.20;;;;;;4987656;28;20050;-59
2022/09/26 08:14:10;;;;;;;10.60;4.10;;;24.30;49.30;;;;;;5003425;28;20046;-60
2022/09/26 08:16:40;;;;;;;7.32;3.47;;;24.30;49.30;;;;;;5002314;28;20133;-59
2022/09/26 08:19:09;;;;;;;4.30;3.35;;;24.30;49.20;;;;;;5003436;28;20442;-62
2022/09/26 08:21:36;;;;;;;5.50;3.17;;;24.30;49.10;;;;;;5005759;28;20390;-63
2022/09/26 08:24:03;;;;;;;5.22;3.33;;;24.30;49.00;;;;;;5001324;28;20052;-63
2022/09/26 08:26:30;;;;;;;4.00;3.17;;;24.30;49.10;;;;;;4997845;28;20117;-65
2022/09/26 08:28:58;;;;;;;5.03;3.45;;;24.40;49.10;;;;;;5001873;28;20176;-64
2022/09/26 08:31:26;;;;;;;3.85;2.65;;;24.40;49.10;;;;;;4984690;28;20046;-66
2022/09/26 08:33:53;;;;;;;5.15;3.20;;;24.40;49.10;;;;;;4998362;28;20050;-65
2022/09/26 08:36:20;;;;;;;5.28;3.30;;;24.40;49.00;;;;;;4997971;28;20049;-65
2022/09/26 08:38:50;;;;;;;10.43;3.47;;;24.40;48.90;;;;;;4997475;28;20065;-65
2022/09/26 08:41:57;;;;;;;3.65;3.10;;;24.40;48.80;;;;;;4999382;28;20050;-65
2022/09/26 08:44:55;;;;;;;5.13;3.33;;;24.50;48.80;;;;;;4987455;28;20050;-69
2022/09/26 08:47:47;;;;;;;5.20;3.13;;;24.50;48.80;;;;;;5002795;28;20038;-65
2022/09/26 08:50:42;;;;;;;6.45;3.65;;;24.50;48.80;;;;;;4998922;28;20065;-64
2022/09/26 08:53:22;;;;;;;4.88;2.92;;;24.60;48.90;;;;;;4999066;28;20049;-62
2022/09/26 08:55:52;;;;;;;5.35;2.95;;;24.60;48.80;;;;;;4996758;28;20050;-73
2022/09/26 08:58:21;;;;;;;;;;;24.70;48.80;;;;;;4998848;28;20041;-66
2022/09/26 09:00:59;;;;;;;9.68;2.65;;;24.70;48.70;;;;;;4998467;28;20331;-66
2022/09/26 09:03:33;;;;;;;8.20;3.40;;;24.70;48.40;;;;;;5000816;28;20398;-66
2022/09/26 09:06:07;;;;;;;5.43;3.30;;;24.80;48.40;;;;;;5000100;28;20054;-66
2022/09/26 09:08:38;;;;;;;4.43;2.65;;;24.80;48.30;;;;;;5001465;28;20046;-66
2022/09/26 09:11:45;;;;;;;5.20;2.83;;;24.90;48.20;;;;;;5000199;28;20054;-66
2022/09/26 09:14:48;;;;;;;3.83;2.97;;;24.90;48.00;;;;;;5005088;28;20054;-66
2022/09/26 09:17:51;;;;;;;4.82;3.13;;;24.90;48.00;;;;;;5005750;28;20042;-66
2022/09/26 09:20:33;;;;;;;6.13;2.85;;;24.90;47.90;;;;;;5006014;28;20922;-66
2022/09/26 09:23:33;;;;;;;7.13;3.08;;;24.90;47.80;;;;;;4998958;28;20069;-66
2022/09/26 09:26:38;;;;;;;8.95;3.45;;;25.00;47.90;;;;;;4998552;28;20053;-64
2022/09/26 09:29:55;;;;;;;8.07;3.20;;;25.00;47.90;;;;;;4989936;28;20097;-66
2022/09/26 09:32:29;;;;;;;7.18;3.15;;;25.00;48.20;;;;;;4998295;28;20683;-65
2022/09/26 09:34:56;;;;;;;6.18;2.70;;;25.10;48.40;;;;;;5000882;28;20066;-65
2022/09/26 09:37:33;;;;;;;3.83;2.75;;;25.10;48.30;;;;;;5007626;28;20079;-64
2022/09/26 09:40:01;;;;;;;8.23;3.33;;;25.10;48.50;;;;;;5007039;28;20149;-63
2022/09/26 09:42:44;;;;;;;3.53;3.20;;;25.10;48.00;;;;;;5006326;28;20064;-62
2022/09/26 09:45:22;;;;;;;5.15;2.88;;;25.20;48.00;;;;;;5002657;28;20068;-60
2022/09/26 09:47:50;;;;;;;4.97;3.58;;;25.20;48.20;;;;;;5003188;28;20490;-61
2022/09/26 09:50:57;;;;;;;4.28;2.78;;;25.20;48.20;;;;;;5006397;28;20056;-60
2022/09/26 09:54:04;;;;;;;6.80;3.30;;;25.20;48.40;;;;;;4990158;28;20141;-61
2022/09/26 09:56:57;;;;;;;12.70;3.10;;;25.30;48.30;;;;;;5005984;28;20037;-61
2022/09/26 09:59:51;;;;;;;8.63;2.67;;;25.30;48.80;;;;;;5004674;28;20054;-63
2022/09/26 10:02:30;;;;;;;5.03;2.67;;;25.30;48.60;;;;;;5010137;28;20422;-62
2022/09/26 10:05:27;;;;;;;3.83;2.33;;;25.40;48.30;;;;;;4988601;28;20049;-64
2022/09/26 10:07:56;;;;;;;9.45;3.17;;;25.40;48.10;;;;;;5000865;28;20473;-63
2022/09/26 10:10:41;;;;;;;7.68;3.47;;;25.40;47.90;;;;;;4985462;28;20485;-63
2022/09/26 10:13:09;;;;;;;5.47;2.40;;;25.40;47.70;;;;;;5002219;28;20667;-63
2022/09/26 10:15:58;;;;;;;5.35;2.58;;;25.40;47.60;;;;;;5010410;28;20049;-67
2022/09/26 10:18:26;;;;;;;9.23;2.90;;;25.40;47.60;;;;;;4987215;28;20057;-66
2022/09/26 10:20:57;;;;;;;8.82;3.20;;;25.40;47.60;;;;;;5001578;28;20050;-63
2022/09/26 10:23:36;;;;;;;2.85;2.65;;;25.40;47.50;;;;;;5004155;28;20061;-61
2022/09/26 10:26:07;;;;;;;2.67;2.47;;;25.40;47.60;;;;;;5003462;28;20825;-60
2022/09/26 10:28:56;;;;;;;;;;;25.40;47.50;;;;;;5008463;28;20068;-61
2022/09/26 10:31:29;;;;;;;6.13;2.55;;;25.40;47.60;;;;;;5001723;28;19932;-61
2022/09/26 10:34:03;;;;;;;4.97;3.40;;;25.40;47.40;;;;;;4996653;28;20105;-62
2022/09/26 10:36:39;;;;;;;2.85;2.55;;;25.50;47.60;;;;;;4983142;28;20053;-60
2022/09/26 10:42:18;;;;;;;6.82;2.50;;;25.40;47.30;;;;;;5004652;28;20050;-61
2022/09/26 10:44:47;;;;;;;4.93;2.35;;;25.50;47.40;;;;;;5006385;28;20061;-61
2022/09/26 10:47:17;;;;;;;4.13;2.78;;;25.50;47.50;;;;;;4995945;28;20050;-61
2022/09/26 10:49:53;;;;;;;10.43;2.50;;;25.50;47.50;;;;;;5001508;28;20607;-63
2022/09/26 10:52:33;;;;;;;11.70;2.50;;;25.60;48.20;;;;;;5004135;28;20053;-62
2022/09/26 10:55:07;;;;;;;;;;;25.60;48.50;;;;;;5003024;28;20042;-61
2022/09/26 10:57:44;;;;;;;3.60;2.08;;;25.60;47.90;;;;;;4999187;28;20534;-61
2022/09/26 11:00:36;;;;;;;6.63;2.72;;;25.70;47.70;;;;;;5006029;28;20049;-64
2022/09/26 11:03:07;;;;;;;5.13;2.80;;;25.70;47.50;;;;;;5001269;28;20064;-62
2022/09/26 11:08:27;;;;;;;8.73;2.40;;;25.70;47.50;;;;;;4991703;28;20053;-59
2022/09/26 11:11:00;;;;;;;3.30;2.42;;;25.60;47.40;;;;;;4982856;28;20065;-61
2022/09/26 11:13:37;;;;;;;6.03;2.28;;;25.60;47.40;;;;;;4985746;28;20050;-60
2022/09/26 11:16:11;;;;;;;2.95;2.17;;;25.60;47.40;;;;;;5004030;28;20049;-63
2022/09/26 11:18:57;;;;;;;3.72;2.55;;;25.60;47.40;;;;;;4998669;28;20128;-60
2022/09/26 11:21:46;;;;;;;5.70;2.20;;;25.60;47.40;;;;;;5006113;28;20046;-64
2022/09/26 11:24:41;;;;;;;3.75;3.03;;;25.60;47.40;;;;;;5005346;28;20038;-60
2022/09/26 11:27:47;;;;;;;6.00;2.55;;;25.60;47.30;;;;;;4998353;28;20049;-60
2022/09/26 11:30:19;;;;;;;2.72;2.15;;;25.60;47.50;;;;;;5001869;28;20057;-59
2022/09/26 11:32:49;;;;;;;3.33;2.85;;;25.60;47.50;;;;;;5000306;28;20133;-60
2022/09/26 11:35:52;;;;;;;8.43;2.92;;;25.60;47.50;;;;;;5001692;28;20064;-61
2022/09/26 11:38:47;;;;;;;3.78;2.60;;;25.70;47.40;;;;;;5000373;28;20045;-61
2022/09/26 11:41:40;;;;;;;3.00;2.35;;;25.70;47.20;;;;;;4989582;28;20512;-60
2022/09/26 11:44:47;;;;;;;2.53;2.20;;;25.70;47.10;;;;;;4985232;28;20147;-61
2022/09/26 11:47:54;;;;;;;3.00;2.15;;;25.70;47.00;;;;;;4988408;28;20058;-60
2022/09/26 11:50:55;;;;;;;4.25;2.47;;;25.70;47.00;;;;;;5005956;28;20046;-61
2022/09/26 11:53:51;;;;;;;4.38;2.97;;;25.70;47.00;;;;;;4985106;28;20054;-59
2022/09/26 11:56:58;;;;;;;4.20;2.20;;;25.70;46.90;;;;;;5000480;28;20045;-59
2022/09/26 11:59:57;;;;;;;2.50;1.90;;;25.80;46.80;;;;;;4990388;28;20161;-59
2022/09/26 12:03:03;;;;;;;4.07;2.30;;;25.70;46.70;;;;;;5006899;28;20038;-59
2022/09/26 12:06:02;;;;;;;8.13;2.00;;;25.80;46.60;;;;;;5061946;27;20461;-60
2022/09/26 12:08:59;;;;;;;3.03;1.65;;;25.80;46.60;;;;;;5037298;28;20064;-61
2022/09/26 12:11:37;;;;;;;2.60;2.40;;;25.80;46.60;;;;;;5036839;28;20048;-60
2022/09/26 12:14:44;;;;;;;2.40;2.20;;;25.80;46.50;;;;;;5038865;28;20477;-58
2022/09/26 12:17:37;;;;;;;2.83;2.13;;;25.70;46.10;;;;;;5036088;28;20051;-57
2022/09/26 12:20:28;;;;;;;3.55;2.28;;;25.70;46.20;;;;;;5037082;28;20501;-58
2022/09/26 12:23:23;;;;;;;2.15;2.00;;;25.70;46.50;;;;;;5052798;28;20060;-58
2022/09/26 12:26:15;;;;;;;3.55;2.13;;;25.70;46.60;;;;;;5041732;28;20481;-59
2022/09/26 12:29:04;;;;;;;2.58;2.13;;;25.70;46.50;;;;;;5054991;28;20449;-58
2022/09/26 12:31:49;;;;;;;3.95;2.10;;;25.70;46.40;;;;;;5041973;28;20061;-59
2022/09/26 12:34:43;;;;;;;2.67;2.38;;;25.70;47.10;;;;;;5040072;28;20064;-58
2022/09/26 12:37:41;;;;;;;2.95;2.03;;;25.70;46.60;;;;;;5044430;28;20063;-60
2022/09/26 12:40:28;;;;;;;2.05;1.80;;;25.70;46.60;;;;;;5034850;28;20396;-61
2022/09/26 12:43:30;;;;;;;2.00;1.90;;;25.70;46.70;;;;;;5038865;28;20136;-60
2022/09/26 12:46:34;;;;;;;4.63;1.85;;;25.70;47.00;;;;;;5040735;28;20369;-60
2022/09/26 12:49:21;;;;;;;2.63;2.42;;;25.70;46.90;;;;;;5039855;28;20412;-60
2022/09/26 12:51:51;;;;;;;3.03;2.38;;;25.60;46.80;;;;;;5038547;28;20056;-57
2022/09/26 12:54:34;;;;;;;3.08;2.22;;;25.70;46.80;;;;;;5038318;28;20049;-57
2022/09/26 12:57:28;;;;;;;2.83;2.42;;;25.70;46.90;;;;;;5038436;28;20047;-57
2022/09/26 13:00:11;;;;;;;5.63;1.77;;;25.70;46.80;;;;;;5042220;28;20730;-57
2022/09/26 13:03:10;;;;;;;2.55;2.35;;;25.70;46.80;;;;;;5036003;28;20413;-57
2022/09/26 13:06:01;;;;;;;2.88;2.40;;;25.70;46.80;;;;;;5046667;28;20456;-57
2022/09/26 13:08:46;;;;;;;2.17;1.98;;;25.70;46.90;;;;;;5037227;28;20048;-58
2022/09/26 13:11:46;;;;;;;2.40;2.20;;;25.70;46.80;;;;;;5036792;28;20055;-59
2022/09/26 13:14:45;;;;;;;5.07;2.05;;;25.70;46.80;;;;;;5041703;28;20516;-61
2022/09/26 13:17:28;;;;;;;4.93;2.00;;;25.70;46.80;;;;;;5027578;28;20041;-60
2022/09/26 13:20:09;;;;;;;4.25;1.83;;;25.70;46.80;;;;;;5027064;28;20077;-60
2022/09/26 13:23:06;;;;;;;2.88;2.10;;;25.70;46.80;;;;;;5027589;28;20146;-60
2022/09/26 13:25:47;;;;;;;3.00;2.10;;;25.70;46.70;;;;;;5027765;28;20337;-59
2022/09/26 13:28:22;;;;;;;2.35;2.13;;;25.70;46.60;;;;;;5025566;28;20047;-62
2022/09/26 13:31:01;;;;;;;2.53;2.33;;;25.70;46.60;;;;;;5023716;28;20053;-58
2022/09/26 13:33:49;;;;;;;5.40;2.38;;;25.70;46.70;;;;;;5025728;28;20042;-59
2022/09/26 13:36:19;;;;;;;5.30;2.08;;;25.70;46.60;;;;;;5028173;28;20045;-59
2022/09/26 13:39:25;;;;;;;4.78;2.47;;;25.70;46.50;;;;;;5021363;28;20512;-61
2022/09/26 13:42:21;;;;;;;6.30;2.30;;;25.70;46.60;;;;;;5024684;28;20045;-61
2022/09/26 13:45:19;;;;;;;2.38;1.92;;;25.80;46.50;;;;;;5025069;28;20350;-61
2022/09/26 13:48:07;;;;;;;2.13;1.92;;;25.80;46.50;;;;;;5023961;28;20057;-61
2022/09/26 13:50:46;;;;;;;2.60;2.22;;;25.80;46.50;;;;;;5024567;28;20087;-62
2022/09/26 13:53:33;;;;;;;3.53;1.83;;;25.80;46.40;;;;;;5025439;28;20093;-61
2022/09/26 13:56:40;;;;;;;2.33;2.08;;;25.80;46.30;;;;;;5022802;28;20493;-59
2022/09/26 13:59:31;;;;;;;3.03;1.80;;;25.80;46.50;;;;;;5024108;28;20892;-59